sensor_id;sensor_type;location;lat;lon;timestamp;P1;durP1;ratioP1;P2;durP2;ratioP2
30635;SDS011;17400;52.392;9.750;2023-03-08T00:00:59;8.13;;;5.30;;
30635;SDS011;17400;52.392;9.750;2023-03-08T00:03:28;12.33;;;6.93;;
30635;SDS011;17400;52.392;9.750;2023-03-08T00:05:56;8.23;;;5.23;;
30635;SDS011;17400;52.392;9.750;2023-03-08T00:08:24;8.47;;;5.03;;
30635;SDS011;17400;52.392;9.750;2023-03-08T00:10:52;6.67;;;4.97;;
30635;SDS011;17400;52.392;9.750;2023-03-08T00:13:19;8.43;;;5.27;;
30635;SDS011;17400;52.392;9.750;2023-03-08T00:15:48;9.93;;;6.07;;
30635;SDS011;17400;52.392;9.750;2023-03-08T00:18:16;8.73;;;4.13;;
30635;SDS011;17400;52.392;9.750;2023-03-08T00:20:45;6.53;;;4.97;;
30635;SDS011;17400;52.392;9.750;2023-03-08T00:23:12;8.53;;;5.00;;
30635;SDS011;17400;52.392;9.750;2023-03-08T00:25:40;9.67;;;5.37;;
30635;SDS011;17400;52.392;9.750;2023-03-08T00:28:08;8.33;;;5.03;;
30635;SDS011;17400;52.392;9.750;2023-03-08T00:30:35;7.60;;;4.47;;
30635;SDS011;17400;52.392;9.750;2023-03-08T00:33:04;8.20;;;4.20;;
30635;SDS011;17400;52.392;9.750;2023-03-08T00:35:32;9.17;;;5.33;;
30635;SDS011;17400;52.392;9.750;2023-03-08T00:38:01;9.93;;;5.60;;
30635;SDS011;17400;52.392;9.750;2023-03-08T00:40:29;9.80;;;4.70;;
30635;SDS011;17400;52.392;9.750;2023-03-08T00:42:57;11.90;;;5.40;;
30635;SDS011;17400;52.392;9.750;2023-03-08T00:45:24;8.83;;;5.40;;
30635;SDS011;17400;52.392;9.750;2023-03-08T00:47:54;9.10;;;5.20;;
30635;SDS011;17400;52.392;9.750;2023-03-08T00:50:22;8.70;;;4.67;;
30635;SDS011;17400;52.392;9.750;2023-03-08T00:52:50;8.73;;;4.80;;
30635;SDS011;17400;52.392;9.750;2023-03-08T00:55:19;7.53;;;4.60;;
30635;SDS011;17400;52.392;9.750;2023-03-08T00:57:46;12.57;;;4.40;;
30635;SDS011;17400;52.392;9.750;2023-03-08T01:00:15;5.67;;;4.03;;
30635;SDS011;17400;52.392;9.750;2023-03-08T01:02:43;7.67;;;4.07;;
30635;SDS011;17400;52.392;9.750;2023-03-08T01:05:10;8.10;;;3.97;;
30635;SDS011;17400;52.392;9.750;2023-03-08T01:07:39;5.73;;;3.60;;
30635;SDS011;17400;52.392;9.750;2023-03-08T01:10:07;5.27;;;3.87;;
30635;SDS011;17400;52.392;9.750;2023-03-08T01:12:39;5.93;;;3.63;;
30635;SDS011;17400;52.392;9.750;2023-03-08T01:15:07;6.43;;;3.87;;
30635;SDS011;17400;52.392;9.750;2023-03-08T01:17:35;8.93;;;4.07;;
30635;SDS011;17400;52.392;9.750;2023-03-08T01:20:03;5.43;;;3.27;;
30635;SDS011;17400;52.392;9.750;2023-03-08T01:22:32;5.50;;;3.20;;
30635;SDS011;17400;52.392;9.750;2023-03-08T01:25:00;6.30;;;3.17;;
30635;SDS011;17400;52.392;9.750;2023-03-08T01:27:29;7.97;;;3.97;;
30635;SDS011;17400;52.392;9.750;2023-03-08T01:29:58;5.33;;;3.03;;
30635;SDS011;17400;52.392;9.750;2023-03-08T01:32:26;8.33;;;3.93;;
30635;SDS011;17400;52.392;9.750;2023-03-08T01:34:54;7.97;;;3.73;;
30635;SDS011;17400;52.392;9.750;2023-03-08T01:37:21;9.07;;;5.00;;
30635;SDS011;17400;52.392;9.750;2023-03-08T01:39:51;5.50;;;3.40;;
30635;SDS011;17400;52.392;9.750;2023-03-08T01:42:18;5.77;;;3.77;;
30635;SDS011;17400;52.392;9.750;2023-03-08T01:44:47;8.37;;;3.10;;
30635;SDS011;17400;52.392;9.750;2023-03-08T01:47:21;6.73;;;4.47;;
30635;SDS011;17400;52.392;9.750;2023-03-08T01:49:50;4.23;;;3.00;;
30635;SDS011;17400;52.392;9.750;2023-03-08T01:52:20;6.10;;;2.93;;
30635;SDS011;17400;52.392;9.750;2023-03-08T01:54:53;6.27;;;3.90;;
30635;SDS011;17400;52.392;9.750;2023-03-08T01:57:24;6.17;;;3.00;;
30635;SDS011;17400;52.392;9.750;2023-03-08T01:59:55;8.00;;;3.17;;
30635;SDS011;17400;52.392;9.750;2023-03-08T02:02:26;4.70;;;2.80;;
30635;SDS011;17400;52.392;9.750;2023-03-08T02:04:58;6.47;;;3.20;;
30635;SDS011;17400;52.392;9.750;2023-03-08T02:07:26;4.17;;;2.60;;
30635;SDS011;17400;52.392;9.750;2023-03-08T02:09:54;5.00;;;3.10;;
30635;SDS011;17400;52.392;9.750;2023-03-08T02:12:22;5.73;;;3.00;;
30635;SDS011;17400;52.392;9.750;2023-03-08T02:14:50;6.17;;;3.17;;
30635;SDS011;17400;52.392;9.750;2023-03-08T02:17:17;6.63;;;2.80;;
30635;SDS011;17400;52.392;9.750;2023-03-08T02:19:47;7.13;;;2.83;;
30635;SDS011;17400;52.392;9.750;2023-03-08T02:22:20;5.90;;;3.50;;
30635;SDS011;17400;52.392;9.750;2023-03-08T02:24:49;6.63;;;3.97;;
30635;SDS011;17400;52.392;9.750;2023-03-08T02:27:18;6.90;;;3.43;;
30635;SDS011;17400;52.392;9.750;2023-03-08T02:29:50;7.00;;;3.37;;
30635;SDS011;17400;52.392;9.750;2023-03-08T02:32:18;4.80;;;2.67;;
30635;SDS011;17400;52.392;9.750;2023-03-08T02:34:46;6.13;;;3.60;;
30635;SDS011;17400;52.392;9.750;2023-03-08T02:37:13;7.83;;;3.50;;
30635;SDS011;17400;52.392;9.750;2023-03-08T02:39:43;6.57;;;3.07;;
30635;SDS011;17400;52.392;9.750;2023-03-08T02:42:12;3.97;;;2.23;;
30635;SDS011;17400;52.392;9.750;2023-03-08T02:44:40;6.93;;;3.83;;
30635;SDS011;17400;52.392;9.750;2023-03-08T02:47:08;6.03;;;3.27;;
30635;SDS011;17400;52.392;9.750;2023-03-08T02:49:36;5.00;;;3.37;;
30635;SDS011;17400;52.392;9.750;2023-03-08T02:52:04;6.13;;;3.60;;
30635;SDS011;17400;52.392;9.750;2023-03-08T02:54:32;6.63;;;3.40;;
30635;SDS011;17400;52.392;9.750;2023-03-08T02:57:03;6.43;;;3.57;;
30635;SDS011;17400;52.392;9.750;2023-03-08T02:59:32;5.87;;;3.77;;
30635;SDS011;17400;52.392;9.750;2023-03-08T03:02:02;7.27;;;4.37;;
30635;SDS011;17400;52.392;9.750;2023-03-08T03:04:30;8.53;;;5.07;;
30635;SDS011;17400;52.392;9.750;2023-03-08T03:06:59;7.63;;;4.30;;
30635;SDS011;17400;52.392;9.750;2023-03-08T03:09:28;9.13;;;5.07;;
30635;SDS011;17400;52.392;9.750;2023-03-08T03:11:55;10.00;;;6.00;;
30635;SDS011;17400;52.392;9.750;2023-03-08T03:14:25;8.03;;;5.20;;
30635;SDS011;17400;52.392;9.750;2023-03-08T03:16:57;9.83;;;6.13;;
30635;SDS011;17400;52.392;9.750;2023-03-08T03:19:25;9.43;;;4.87;;
30635;SDS011;17400;52.392;9.750;2023-03-08T03:21:53;9.43;;;5.73;;
30635;SDS011;17400;52.392;9.750;2023-03-08T03:24:21;10.97;;;6.20;;
30635;SDS011;17400;52.392;9.750;2023-03-08T03:26:51;11.07;;;5.87;;
30635;SDS011;17400;52.392;9.750;2023-03-08T03:29:20;11.67;;;4.57;;
30635;SDS011;17400;52.392;9.750;2023-03-08T03:31:48;8.73;;;5.13;;
30635;SDS011;17400;52.392;9.750;2023-03-08T03:34:17;8.90;;;4.80;;
30635;SDS011;17400;52.392;9.750;2023-03-08T03:36:45;7.83;;;4.93;;
30635;SDS011;17400;52.392;9.750;2023-03-08T03:39:13;8.63;;;4.53;;
30635;SDS011;17400;52.392;9.750;2023-03-08T03:41:41;10.27;;;4.40;;
30635;SDS011;17400;52.392;9.750;2023-03-08T03:44:09;9.20;;;5.53;;
30635;SDS011;17400;52.392;9.750;2023-03-08T03:46:36;7.37;;;3.93;;
30635;SDS011;17400;52.392;9.750;2023-03-08T03:49:07;8.67;;;4.87;;
30635;SDS011;17400;52.392;9.750;2023-03-08T03:51:36;8.87;;;4.97;;
30635;SDS011;17400;52.392;9.750;2023-03-08T03:54:04;8.13;;;4.20;;
30635;SDS011;17400;52.392;9.750;2023-03-08T03:56:32;7.57;;;3.70;;
30635;SDS011;17400;52.392;9.750;2023-03-08T03:59:00;7.23;;;3.57;;
30635;SDS011;17400;52.392;9.750;2023-03-08T04:01:29;7.50;;;3.93;;
30635;SDS011;17400;52.392;9.750;2023-03-08T04:03:58;8.00;;;4.50;;
30635;SDS011;17400;52.392;9.750;2023-03-08T04:06:26;7.40;;;4.40;;
30635;SDS011;17400;52.392;9.750;2023-03-08T04:08:57;9.27;;;4.30;;
30635;SDS011;17400;52.392;9.750;2023-03-08T04:11:27;7.20;;;3.47;;
30635;SDS011;17400;52.392;9.750;2023-03-08T04:13:57;7.60;;;3.80;;
30635;SDS011;17400;52.392;9.750;2023-03-08T04:16:26;7.23;;;4.23;;
30635;SDS011;17400;52.392;9.750;2023-03-08T04:18:56;7.47;;;3.37;;
30635;SDS011;17400;52.392;9.750;2023-03-08T04:21:25;8.40;;;4.40;;
30635;SDS011;17400;52.392;9.750;2023-03-08T04:23:53;7.83;;;4.57;;
30635;SDS011;17400;52.392;9.750;2023-03-08T04:26:26;7.47;;;4.20;;
30635;SDS011;17400;52.392;9.750;2023-03-08T04:28:56;10.83;;;4.20;;
30635;SDS011;17400;52.392;9.750;2023-03-08T04:31:24;8.23;;;4.33;;
30635;SDS011;17400;52.392;9.750;2023-03-08T04:33:54;7.77;;;4.00;;
30635;SDS011;17400;52.392;9.750;2023-03-08T04:36:23;8.60;;;3.70;;
30635;SDS011;17400;52.392;9.750;2023-03-08T04:38:51;7.83;;;4.13;;
30635;SDS011;17400;52.392;9.750;2023-03-08T04:41:22;9.23;;;4.10;;
30635;SDS011;17400;52.392;9.750;2023-03-08T04:43:54;9.40;;;4.60;;
30635;SDS011;17400;52.392;9.750;2023-03-08T04:46:26;9.23;;;5.00;;
30635;SDS011;17400;52.392;9.750;2023-03-08T04:48:54;11.77;;;5.43;;
30635;SDS011;17400;52.392;9.750;2023-03-08T04:51:23;7.37;;;3.87;;
30635;SDS011;17400;52.392;9.750;2023-03-08T04:53:52;8.77;;;4.47;;
30635;SDS011;17400;52.392;9.750;2023-03-08T04:56:22;8.13;;;4.43;;
30635;SDS011;17400;52.392;9.750;2023-03-08T04:58:50;8.97;;;4.57;;
30635;SDS011;17400;52.392;9.750;2023-03-08T05:01:24;8.23;;;4.20;;
30635;SDS011;17400;52.392;9.750;2023-03-08T05:03:53;8.57;;;4.70;;
30635;SDS011;17400;52.392;9.750;2023-03-08T05:06:22;8.60;;;4.70;;
30635;SDS011;17400;52.392;9.750;2023-03-08T05:08:52;8.70;;;4.90;;
30635;SDS011;17400;52.392;9.750;2023-03-08T05:11:21;8.03;;;4.07;;
30635;SDS011;17400;52.392;9.750;2023-03-08T05:13:51;10.13;;;5.03;;
30635;SDS011;17400;52.392;9.750;2023-03-08T05:16:21;7.13;;;4.03;;
30635;SDS011;17400;52.392;9.750;2023-03-08T05:18:50;9.60;;;4.47;;
30635;SDS011;17400;52.392;9.750;2023-03-08T05:21:20;10.67;;;5.17;;
30635;SDS011;17400;52.392;9.750;2023-03-08T05:23:52;9.93;;;4.97;;
30635;SDS011;17400;52.392;9.750;2023-03-08T05:26:19;9.63;;;5.23;;
30635;SDS011;17400;52.392;9.750;2023-03-08T05:28:47;9.07;;;4.70;;
30635;SDS011;17400;52.392;9.750;2023-03-08T05:31:15;9.60;;;5.10;;
30635;SDS011;17400;52.392;9.750;2023-03-08T05:33:46;9.27;;;4.73;;
30635;SDS011;17400;52.392;9.750;2023-03-08T05:36:16;9.43;;;4.60;;
30635;SDS011;17400;52.392;9.750;2023-03-08T05:38:45;8.07;;;4.23;;
30635;SDS011;17400;52.392;9.750;2023-03-08T05:41:14;7.83;;;4.47;;
30635;SDS011;17400;52.392;9.750;2023-03-08T05:43:45;9.50;;;4.67;;
30635;SDS011;17400;52.392;9.750;2023-03-08T05:46:14;7.03;;;4.47;;
30635;SDS011;17400;52.392;9.750;2023-03-08T05:48:43;7.03;;;3.43;;
30635;SDS011;17400;52.392;9.750;2023-03-08T05:51:13;9.50;;;5.07;;
30635;SDS011;17400;52.392;9.750;2023-03-08T05:53:42;7.17;;;4.50;;
30635;SDS011;17400;52.392;9.750;2023-03-08T05:56:11;9.73;;;4.60;;
30635;SDS011;17400;52.392;9.750;2023-03-08T05:58:41;10.80;;;4.57;;
30635;SDS011;17400;52.392;9.750;2023-03-08T06:01:12;7.67;;;4.60;;
30635;SDS011;17400;52.392;9.750;2023-03-08T06:03:42;7.97;;;4.10;;
30635;SDS011;17400;52.392;9.750;2023-03-08T06:06:10;9.90;;;4.87;;
30635;SDS011;17400;52.392;9.750;2023-03-08T06:08:42;9.50;;;4.80;;
30635;SDS011;17400;52.392;9.750;2023-03-08T06:11:10;11.70;;;4.23;;
30635;SDS011;17400;52.392;9.750;2023-03-08T06:13:38;10.37;;;4.10;;
30635;SDS011;17400;52.392;9.750;2023-03-08T06:16:06;9.13;;;3.87;;
30635;SDS011;17400;52.392;9.750;2023-03-08T06:18:34;8.80;;;5.17;;
30635;SDS011;17400;52.392;9.750;2023-03-08T06:21:05;10.23;;;4.63;;
30635;SDS011;17400;52.392;9.750;2023-03-08T06:23:34;6.57;;;4.37;;
30635;SDS011;17400;52.392;9.750;2023-03-08T06:26:04;9.80;;;5.13;;
30635;SDS011;17400;52.392;9.750;2023-03-08T06:28:33;5.77;;;3.77;;
30635;SDS011;17400;52.392;9.750;2023-03-08T06:31:01;6.50;;;3.87;;
30635;SDS011;17400;52.392;9.750;2023-03-08T06:33:31;8.33;;;4.43;;
30635;SDS011;17400;52.392;9.750;2023-03-08T06:36:00;10.67;;;5.00;;
30635;SDS011;17400;52.392;9.750;2023-03-08T06:38:30;11.10;;;6.20;;
30635;SDS011;17400;52.392;9.750;2023-03-08T06:41:00;8.03;;;4.63;;
30635;SDS011;17400;52.392;9.750;2023-03-08T06:43:30;7.47;;;4.10;;
30635;SDS011;17400;52.392;9.750;2023-03-08T06:46:01;11.30;;;4.63;;
30635;SDS011;17400;52.392;9.750;2023-03-08T06:48:30;8.73;;;4.77;;
30635;SDS011;17400;52.392;9.750;2023-03-08T06:50:58;11.03;;;5.03;;
30635;SDS011;17400;52.392;9.750;2023-03-08T06:53:26;9.83;;;4.23;;
30635;SDS011;17400;52.392;9.750;2023-03-08T06:55:56;8.63;;;4.43;;
30635;SDS011;17400;52.392;9.750;2023-03-08T06:58:28;11.60;;;4.03;;
30635;SDS011;17400;52.392;9.750;2023-03-08T07:00:57;7.53;;;4.60;;
30635;SDS011;17400;52.392;9.750;2023-03-08T07:03:26;9.00;;;4.50;;
30635;SDS011;17400;52.392;9.750;2023-03-08T07:05:56;8.73;;;4.30;;
30635;SDS011;17400;52.392;9.750;2023-03-08T07:08:25;9.97;;;3.80;;
30635;SDS011;17400;52.392;9.750;2023-03-08T07:10:54;7.90;;;5.27;;
30635;SDS011;17400;52.392;9.750;2023-03-08T07:13:24;9.90;;;5.47;;
30635;SDS011;17400;52.392;9.750;2023-03-08T07:15:52;8.10;;;4.13;;
30635;SDS011;17400;52.392;9.750;2023-03-08T07:18:21;7.27;;;4.37;;
30635;SDS011;17400;52.392;9.750;2023-03-08T07:20:50;9.20;;;5.20;;
30635;SDS011;17400;52.392;9.750;2023-03-08T07:23:19;10.60;;;5.20;;
30635;SDS011;17400;52.392;9.750;2023-03-08T07:25:47;9.40;;;4.33;;
30635;SDS011;17400;52.392;9.750;2023-03-08T07:28:15;8.37;;;4.70;;
30635;SDS011;17400;52.392;9.750;2023-03-08T07:30:45;11.30;;;7.07;;
30635;SDS011;17400;52.392;9.750;2023-03-08T07:33:14;9.20;;;5.00;;
30635;SDS011;17400;52.392;9.750;2023-03-08T07:35:43;7.27;;;3.90;;
30635;SDS011;17400;52.392;9.750;2023-03-08T07:38:11;13.10;;;5.60;;
30635;SDS011;17400;52.392;9.750;2023-03-08T07:40:42;11.97;;;5.43;;
30635;SDS011;17400;52.392;9.750;2023-03-08T07:43:10;14.53;;;6.37;;
30635;SDS011;17400;52.392;9.750;2023-03-08T07:45:38;14.23;;;6.77;;
30635;SDS011;17400;52.392;9.750;2023-03-08T07:48:06;14.37;;;6.90;;
30635;SDS011;17400;52.392;9.750;2023-03-08T07:50:34;11.47;;;6.07;;
30635;SDS011;17400;52.392;9.750;2023-03-08T07:53:04;12.60;;;5.83;;
30635;SDS011;17400;52.392;9.750;2023-03-08T07:55:33;13.47;;;7.27;;
30635;SDS011;17400;52.392;9.750;2023-03-08T07:58:01;14.57;;;6.73;;
30635;SDS011;17400;52.392;9.750;2023-03-08T08:00:28;14.50;;;7.43;;
30635;SDS011;17400;52.392;9.750;2023-03-08T08:02:57;13.43;;;7.33;;
30635;SDS011;17400;52.392;9.750;2023-03-08T08:05:25;8.27;;;4.73;;
30635;SDS011;17400;52.392;9.750;2023-03-08T08:07:53;14.77;;;6.20;;
30635;SDS011;17400;52.392;9.750;2023-03-08T08:10:22;17.27;;;7.97;;
30635;SDS011;17400;52.392;9.750;2023-03-08T08:12:53;14.53;;;6.77;;
30635;SDS011;17400;52.392;9.750;2023-03-08T08:15:23;13.87;;;8.17;;
30635;SDS011;17400;52.392;9.750;2023-03-08T08:17:51;15.17;;;7.70;;
30635;SDS011;17400;52.392;9.750;2023-03-08T08:20:19;16.23;;;8.97;;
30635;SDS011;17400;52.392;9.750;2023-03-08T08:22:47;16.37;;;7.10;;
30635;SDS011;17400;52.392;9.750;2023-03-08T08:25:18;18.53;;;7.37;;
30635;SDS011;17400;52.392;9.750;2023-03-08T08:27:49;12.43;;;6.87;;
30635;SDS011;17400;52.392;9.750;2023-03-08T08:30:17;17.33;;;8.47;;
30635;SDS011;17400;52.392;9.750;2023-03-08T08:32:46;15.20;;;8.17;;
30635;SDS011;17400;52.392;9.750;2023-03-08T08:35:13;13.60;;;7.07;;
30635;SDS011;17400;52.392;9.750;2023-03-08T08:37:41;12.53;;;5.67;;
30635;SDS011;17400;52.392;9.750;2023-03-08T08:40:10;11.37;;;5.23;;
30635;SDS011;17400;52.392;9.750;2023-03-08T08:42:38;17.40;;;7.67;;
30635;SDS011;17400;52.392;9.750;2023-03-08T08:45:08;14.40;;;7.80;;
30635;SDS011;17400;52.392;9.750;2023-03-08T08:47:37;14.63;;;7.83;;
30635;SDS011;17400;52.392;9.750;2023-03-08T08:50:07;16.27;;;7.50;;
30635;SDS011;17400;52.392;9.750;2023-03-08T08:52:39;10.83;;;6.13;;
30635;SDS011;17400;52.392;9.750;2023-03-08T08:55:11;17.67;;;7.73;;
30635;SDS011;17400;52.392;9.750;2023-03-08T08:57:39;15.13;;;8.30;;
30635;SDS011;17400;52.392;9.750;2023-03-08T09:00:09;10.93;;;6.40;;
30635;SDS011;17400;52.392;9.750;2023-03-08T09:02:38;11.97;;;6.13;;
30635;SDS011;17400;52.392;9.750;2023-03-08T09:05:06;16.50;;;7.57;;
30635;SDS011;17400;52.392;9.750;2023-03-08T09:07:34;17.73;;;8.57;;
30635;SDS011;17400;52.392;9.750;2023-03-08T09:10:05;15.40;;;8.40;;
30635;SDS011;17400;52.392;9.750;2023-03-08T09:12:34;14.13;;;7.07;;
30635;SDS011;17400;52.392;9.750;2023-03-08T09:15:02;13.13;;;6.03;;
30635;SDS011;17400;52.392;9.750;2023-03-08T09:17:33;19.13;;;9.13;;
30635;SDS011;17400;52.392;9.750;2023-03-08T09:20:02;16.03;;;9.03;;
30635;SDS011;17400;52.392;9.750;2023-03-08T09:22:32;16.23;;;7.43;;
30635;SDS011;17400;52.392;9.750;2023-03-08T09:25:00;20.87;;;9.57;;
30635;SDS011;17400;52.392;9.750;2023-03-08T09:27:28;18.27;;;8.10;;
30635;SDS011;17400;52.392;9.750;2023-03-08T09:29:57;16.03;;;8.53;;
30635;SDS011;17400;52.392;9.750;2023-03-08T09:32:31;22.90;;;8.87;;
30635;SDS011;17400;52.392;9.750;2023-03-08T09:35:01;16.67;;;7.60;;
30635;SDS011;17400;52.392;9.750;2023-03-08T09:37:30;19.40;;;9.70;;
30635;SDS011;17400;52.392;9.750;2023-03-08T09:40:01;16.43;;;8.83;;
30635;SDS011;17400;52.392;9.750;2023-03-08T09:42:46;15.53;;;8.33;;
30635;SDS011;17400;52.392;9.750;2023-03-08T09:45:19;21.90;;;8.13;;
30635;SDS011;17400;52.392;9.750;2023-03-08T09:47:56;16.47;;;8.20;;
30635;SDS011;17400;52.392;9.750;2023-03-08T09:50:34;18.87;;;8.40;;
30635;SDS011;17400;52.392;9.750;2023-03-08T09:53:16;18.53;;;8.93;;
30635;SDS011;17400;52.392;9.750;2023-03-08T09:55:50;20.27;;;10.07;;
30635;SDS011;17400;52.392;9.750;2023-03-08T09:58:26;18.13;;;9.10;;
30635;SDS011;17400;52.392;9.750;2023-03-08T10:01:03;16.70;;;8.60;;
30635;SDS011;17400;52.392;9.750;2023-03-08T10:03:52;15.80;;;7.40;;
30635;SDS011;17400;52.392;9.750;2023-03-08T10:06:31;16.20;;;8.90;;
30635;SDS011;17400;52.392;9.750;2023-03-08T10:09:06;18.33;;;9.07;;
30635;SDS011;17400;52.392;9.750;2023-03-08T10:11:48;13.13;;;5.73;;
30635;SDS011;17400;52.392;9.750;2023-03-08T10:14:23;18.53;;;8.83;;
30635;SDS011;17400;52.392;9.750;2023-03-08T10:16:57;22.97;;;9.50;;
30635;SDS011;17400;52.392;9.750;2023-03-08T10:19:31;16.90;;;8.70;;
30635;SDS011;17400;52.392;9.750;2023-03-08T10:22:06;16.87;;;8.33;;
30635;SDS011;17400;52.392;9.750;2023-03-08T10:24:41;18.47;;;9.23;;
30635;SDS011;17400;52.392;9.750;2023-03-08T10:27:14;20.23;;;10.00;;
30635;SDS011;17400;52.392;9.750;2023-03-08T10:29:47;17.27;;;8.53;;
30635;SDS011;17400;52.392;9.750;2023-03-08T10:32:16;21.77;;;9.70;;
30635;SDS011;17400;52.392;9.750;2023-03-08T10:34:46;22.67;;;9.83;;
30635;SDS011;17400;52.392;9.750;2023-03-08T10:37:18;20.43;;;10.27;;
30635;SDS011;17400;52.392;9.750;2023-03-08T10:39:48;20.53;;;9.60;;
30635;SDS011;17400;52.392;9.750;2023-03-08T10:42:22;18.23;;;8.80;;
30635;SDS011;17400;52.392;9.750;2023-03-08T10:44:53;18.00;;;9.40;;
30635;SDS011;17400;52.392;9.750;2023-03-08T10:47:24;17.63;;;7.20;;
30635;SDS011;17400;52.392;9.750;2023-03-08T10:50:12;17.40;;;9.37;;
30635;SDS011;17400;52.392;9.750;2023-03-08T10:52:47;16.40;;;9.30;;
30635;SDS011;17400;52.392;9.750;2023-03-08T10:55:17;15.17;;;7.10;;
30635;SDS011;17400;52.392;9.750;2023-03-08T10:57:48;15.97;;;8.30;;
30635;SDS011;17400;52.392;9.750;2023-03-08T11:00:29;12.03;;;6.80;;
30635;SDS011;17400;52.392;9.750;2023-03-08T11:03:06;14.07;;;7.10;;
30635;SDS011;17400;52.392;9.750;2023-03-08T11:05:52;14.97;;;7.70;;
30635;SDS011;17400;52.392;9.750;2023-03-08T11:08:23;23.77;;;9.57;;
30635;SDS011;17400;52.392;9.750;2023-03-08T11:10:59;18.13;;;8.17;;
30635;SDS011;17400;52.392;9.750;2023-03-08T11:13:29;17.17;;;7.60;;
30635;SDS011;17400;52.392;9.750;2023-03-08T11:16:01;15.40;;;7.97;;
30635;SDS011;17400;52.392;9.750;2023-03-08T11:18:50;21.70;;;6.50;;
30635;SDS011;17400;52.392;9.750;2023-03-08T11:21:28;13.63;;;6.93;;
30635;SDS011;17400;52.392;9.750;2023-03-08T11:24:06;17.33;;;7.20;;
30635;SDS011;17400;52.392;9.750;2023-03-08T11:26:47;16.10;;;8.67;;
30635;SDS011;17400;52.392;9.750;2023-03-08T11:29:29;17.63;;;8.77;;
30635;SDS011;17400;52.392;9.750;2023-03-08T11:32:08;15.23;;;9.33;;
30635;SDS011;17400;52.392;9.750;2023-03-08T11:35:01;15.30;;;7.70;;
30635;SDS011;17400;52.392;9.750;2023-03-08T11:37:39;9.13;;;5.37;;
30635;SDS011;17400;52.392;9.750;2023-03-08T11:40:18;11.13;;;6.57;;
30635;SDS011;17400;52.392;9.750;2023-03-08T11:42:53;17.97;;;7.10;;
30635;SDS011;17400;52.392;9.750;2023-03-08T11:45:34;13.47;;;6.70;;
30635;SDS011;17400;52.392;9.750;2023-03-08T11:48:20;16.40;;;9.23;;
30635;SDS011;17400;52.392;9.750;2023-03-08T11:51:03;14.80;;;6.87;;
30635;SDS011;17400;52.392;9.750;2023-03-08T11:53:41;15.13;;;7.43;;
30635;SDS011;17400;52.392;9.750;2023-03-08T11:56:23;12.07;;;6.27;;
30635;SDS011;17400;52.392;9.750;2023-03-08T11:59:04;16.43;;;7.80;;
30635;SDS011;17400;52.392;9.750;2023-03-08T12:01:37;15.53;;;7.30;;
30635;SDS011;17400;52.392;9.750;2023-03-08T12:04:10;16.07;;;7.50;;
30635;SDS011;17400;52.392;9.750;2023-03-08T12:06:41;13.10;;;6.17;;
30635;SDS011;17400;52.392;9.750;2023-03-08T12:09:14;8.60;;;4.73;;
30635;SDS011;17400;52.392;9.750;2023-03-08T12:11:50;12.20;;;5.83;;
30635;SDS011;17400;52.392;9.750;2023-03-08T12:14:25;11.93;;;5.87;;
30635;SDS011;17400;52.392;9.750;2023-03-08T12:16:58;16.43;;;6.83;;
30635;SDS011;17400;52.392;9.750;2023-03-08T12:19:33;11.57;;;6.53;;
30635;SDS011;17400;52.392;9.750;2023-03-08T12:22:11;14.47;;;7.47;;
30635;SDS011;17400;52.392;9.750;2023-03-08T12:24:53;10.47;;;4.27;;
30635;SDS011;17400;52.392;9.750;2023-03-08T12:27:29;7.43;;;3.87;;
30635;SDS011;17400;52.392;9.750;2023-03-08T12:30:12;6.47;;;3.33;;
30635;SDS011;17400;52.392;9.750;2023-03-08T12:32:47;8.23;;;4.70;;
30635;SDS011;17400;52.392;9.750;2023-03-08T12:35:23;7.17;;;3.73;;
30635;SDS011;17400;52.392;9.750;2023-03-08T12:37:54;8.97;;;3.93;;
30635;SDS011;17400;52.392;9.750;2023-03-08T12:40:27;11.47;;;4.60;;
30635;SDS011;17400;52.392;9.750;2023-03-08T12:43:05;12.10;;;3.87;;
30635;SDS011;17400;52.392;9.750;2023-03-08T12:45:36;10.50;;;4.53;;
30635;SDS011;17400;52.392;9.750;2023-03-08T12:48:13;15.27;;;5.73;;
30635;SDS011;17400;52.392;9.750;2023-03-08T12:50:53;7.67;;;4.20;;
30635;SDS011;17400;52.392;9.750;2023-03-08T12:53:29;10.90;;;4.57;;
30635;SDS011;17400;52.392;9.750;2023-03-08T12:56:12;6.20;;;3.70;;
30635;SDS011;17400;52.392;9.750;2023-03-08T12:58:49;6.07;;;3.67;;
30635;SDS011;17400;52.392;9.750;2023-03-08T13:01:28;13.30;;;6.37;;
30635;SDS011;17400;52.392;9.750;2023-03-08T13:04:01;8.60;;;4.27;;
30635;SDS011;17400;52.392;9.750;2023-03-08T13:06:35;9.57;;;4.50;;
30635;SDS011;17400;52.392;9.750;2023-03-08T13:09:42;8.63;;;5.13;;
30635;SDS011;17400;52.392;9.750;2023-03-08T13:12:24;10.57;;;5.30;;
30635;SDS011;17400;52.392;9.750;2023-03-08T13:14:59;9.53;;;3.97;;
30635;SDS011;17400;52.392;9.750;2023-03-08T13:17:37;8.03;;;4.37;;
30635;SDS011;17400;52.392;9.750;2023-03-08T13:20:11;9.30;;;3.63;;
30635;SDS011;17400;52.392;9.750;2023-03-08T13:22:47;6.23;;;3.43;;
30635;SDS011;17400;52.392;9.750;2023-03-08T13:28:27;6.93;;;3.00;;
30635;SDS011;17400;52.392;9.750;2023-03-08T13:31:13;4.03;;;2.13;;
30635;SDS011;17400;52.392;9.750;2023-03-08T13:33:45;5.37;;;2.30;;
30635;SDS011;17400;52.392;9.750;2023-03-08T13:36:17;7.30;;;3.47;;
30635;SDS011;17400;52.392;9.750;2023-03-08T13:38:53;11.60;;;5.43;;
30635;SDS011;17400;52.392;9.750;2023-03-08T13:41:34;6.90;;;3.87;;
30635;SDS011;17400;52.392;9.750;2023-03-08T13:44:05;5.03;;;3.30;;
30635;SDS011;17400;52.392;9.750;2023-03-08T13:46:35;8.73;;;4.37;;
30635;SDS011;17400;52.392;9.750;2023-03-08T13:49:09;8.07;;;3.73;;
30635;SDS011;17400;52.392;9.750;2023-03-08T13:51:43;6.67;;;3.80;;
30635;SDS011;17400;52.392;9.750;2023-03-08T13:54:14;10.67;;;4.07;;
30635;SDS011;17400;52.392;9.750;2023-03-08T13:56:51;4.63;;;3.13;;
30635;SDS011;17400;52.392;9.750;2023-03-08T13:59:20;7.53;;;3.90;;
30635;SDS011;17400;52.392;9.750;2023-03-08T14:01:49;6.53;;;3.43;;
30635;SDS011;17400;52.392;9.750;2023-03-08T14:04:19;6.53;;;3.50;;
30635;SDS011;17400;52.392;9.750;2023-03-08T14:06:49;8.07;;;4.13;;
30635;SDS011;17400;52.392;9.750;2023-03-08T14:09:21;7.23;;;4.63;;
30635;SDS011;17400;52.392;9.750;2023-03-08T14:11:52;6.60;;;3.77;;
30635;SDS011;17400;52.392;9.750;2023-03-08T14:14:26;6.77;;;3.67;;
30635;SDS011;17400;52.392;9.750;2023-03-08T14:16:57;10.30;;;4.87;;
30635;SDS011;17400;52.392;9.750;2023-03-08T14:19:26;6.70;;;4.20;;
30635;SDS011;17400;52.392;9.750;2023-03-08T14:22:00;11.23;;;6.33;;
30635;SDS011;17400;52.392;9.750;2023-03-08T14:24:30;12.03;;;5.80;;
30635;SDS011;17400;52.392;9.750;2023-03-08T14:27:01;17.07;;;7.17;;
30635;SDS011;17400;52.392;9.750;2023-03-08T14:29:32;11.80;;;6.03;;
30635;SDS011;17400;52.392;9.750;2023-03-08T14:32:02;18.27;;;8.40;;
30635;SDS011;17400;52.392;9.750;2023-03-08T14:34:35;16.70;;;7.43;;
30635;SDS011;17400;52.392;9.750;2023-03-08T14:37:05;13.63;;;6.97;;
30635;SDS011;17400;52.392;9.750;2023-03-08T14:39:41;20.93;;;6.60;;
30635;SDS011;17400;52.392;9.750;2023-03-08T14:42:15;13.97;;;6.47;;
30635;SDS011;17400;52.392;9.750;2023-03-08T14:44:51;13.83;;;4.90;;
30635;SDS011;17400;52.392;9.750;2023-03-08T14:47:21;10.57;;;6.70;;
30635;SDS011;17400;52.392;9.750;2023-03-08T14:49:55;12.03;;;5.70;;
30635;SDS011;17400;52.392;9.750;2023-03-08T14:52:28;20.90;;;8.10;;
30635;SDS011;17400;52.392;9.750;2023-03-08T14:54:57;14.27;;;5.80;;
30635;SDS011;17400;52.392;9.750;2023-03-08T14:57:25;13.77;;;7.10;;
30635;SDS011;17400;52.392;9.750;2023-03-08T15:00:00;13.30;;;6.97;;
30635;SDS011;17400;52.392;9.750;2023-03-08T15:02:33;11.43;;;7.40;;
30635;SDS011;17400;52.392;9.750;2023-03-08T15:05:02;8.93;;;5.17;;
30635;SDS011;17400;52.392;9.750;2023-03-08T15:07:31;11.07;;;7.07;;